sensor_id;sensor_type;location;lat;lon;timestamp;pressure;altitude;pressure_sealevel;temperature;humidity
37170;BME280;23062;13.952;100.608;2022-08-27T00:02:08;1007.66;;;28.07;100.00
37170;BME280;23062;13.952;100.608;2022-08-27T00:06:57;1007.69;;;27.94;100.00
37170;BME280;23062;13.952;100.608;2022-08-27T00:11:47;1007.76;;;27.87;100.00
37170;BME280;23062;13.952;100.608;2022-08-27T00:16:36;1007.82;;;27.93;100.00
37170;BME280;23062;13.952;100.608;2022-08-27T00:21:26;1007.87;;;27.97;100.00
37170;BME280;23062;13.952;100.608;2022-08-27T00:26:16;1007.96;;;27.94;100.00
37170;BME280;23062;13.952;100.608;2022-08-27T00:31:06;1008.02;;;27.86;100.00
37170;BME280;23062;13.952;100.608;2022-08-27T00:35:55;1008.08;;;27.81;100.00
37170;BME280;23062;13.952;100.608;2022-08-27T00:40:45;1008.16;;;27.92;100.00
37170;BME280;23062;13.952;100.608;2022-08-27T00:45:38;1008.19;;;28.01;100.00
37170;BME280;23062;13.952;100.608;2022-08-27T00:50:41;1008.27;;;28.04;100.00
37170;BME280;23062;13.952;100.608;2022-08-27T00:55:33;1008.35;;;27.95;100.00
37170;BME280;23062;13.952;100.608;2022-08-27T01:00:23;1008.44;;;27.87;100.00
37170;BME280;23062;13.952;100.608;2022-08-27T01:05:16;1008.47;;;27.96;100.00
37170;BME280;23062;13.952;100.608;2022-08-27T01:10:09;1008.51;;;28.11;100.00
37170;BME280;23062;13.952;100.608;2022-08-27T01:14:59;1008.51;;;28.10;100.00
37170;BME280;23062;13.952;100.608;2022-08-27T01:19:52;1008.64;;;28.13;100.00
37170;BME280;23062;13.952;100.608;2022-08-27T01:24:48;1008.61;;;28.15;100.00
37170;BME280;23062;13.952;100.608;2022-08-27T01:29:33;1008.58;;;28.20;100.00
37170;BME280;23062;13.952;100.608;2022-08-27T01:34:23;1008.57;;;28.39;100.00
37170;BME280;23062;13.952;100.608;2022-08-27T01:39:13;1008.56;;;28.43;100.00
37170;BME280;23062;13.952;100.608;2022-08-27T01:44:03;1008.62;;;28.56;100.00
37170;BME280;23062;13.952;100.608;2022-08-27T01:48:53;1008.55;;;28.65;100.00
37170;BME280;23062;13.952;100.608;2022-08-27T01:53:43;1008.49;;;28.79;100.00
37170;BME280;23062;13.952;100.608;2022-08-27T01:58:32;1008.36;;;28.86;100.00
37170;BME280;23062;13.952;100.608;2022-08-27T02:03:22;1008.38;;;29.02;100.00
37170;BME280;23062;13.952;100.608;2022-08-27T02:08:12;1008.33;;;29.09;100.00
37170;BME280;23062;13.952;100.608;2022-08-27T02:13:02;1008.32;;;29.15;100.00
37170;BME280;23062;13.952;100.608;2022-08-27T02:17:53;1008.32;;;29.21;100.00
37170;BME280;23062;13.952;100.608;2022-08-27T02:22:44;1008.41;;;29.25;100.00
37170;BME280;23062;13.952;100.608;2022-08-27T02:27:34;1008.47;;;29.35;100.00
37170;BME280;23062;13.952;100.608;2022-08-27T02:32:24;1008.48;;;29.34;100.00
37170;BME280;23062;13.952;100.608;2022-08-27T02:37:15;1008.51;;;29.42;100.00
37170;BME280;23062;13.952;100.608;2022-08-27T02:42:04;1008.48;;;29.44;100.00
37170;BME280;23062;13.952;100.608;2022-08-27T02:46:54;1008.49;;;29.45;100.00
37170;BME280;23062;13.952;100.608;2022-08-27T02:51:44;1008.48;;;29.55;100.00
37170;BME280;23062;13.952;100.608;2022-08-27T02:56:35;1008.39;;;29.60;100.00
37170;BME280;23062;13.952;100.608;2022-08-27T03:01:24;1008.37;;;29.69;100.00
37170;BME280;23062;13.952;100.608;2022-08-27T03:06:14;1008.29;;;29.77;100.00
37170;BME280;23062;13.952;100.608;2022-08-27T03:11:03;1008.38;;;29.74;100.00
37170;BME280;23062;13.952;100.608;2022-08-27T03:15:54;1008.40;;;29.76;100.00
37170;BME280;23062;13.952;100.608;2022-08-27T03:20:45;1008.43;;;29.85;100.00
37170;BME280;23062;13.952;100.608;2022-08-27T03:25:34;1008.40;;;29.81;100.00
37170;BME280;23062;13.952;100.608;2022-08-27T03:30:25;1008.35;;;29.78;100.00
37170;BME280;23062;13.952;100.608;2022-08-27T03:35:14;1008.26;;;29.75;100.00
37170;BME280;23062;13.952;100.608;2022-08-27T03:40:04;1008.18;;;29.88;100.00
37170;BME280;23062;13.952;100.608;2022-08-27T03:44:54;1008.09;;;29.75;100.00
37170;BME280;23062;13.952;100.608;2022-08-27T03:49:43;1008.00;;;30.00;98.64
37170;BME280;23062;13.952;100.608;2022-08-27T03:54:38;1007.96;;;29.89;100.00
37170;BME280;23062;13.952;100.608;2022-08-27T03:59:29;1007.86;;;29.81;99.38
37170;BME280;23062;13.952;100.608;2022-08-27T04:04:18;1007.80;;;29.91;99.25
37170;BME280;23062;13.952;100.608;2022-08-27T04:09:08;1007.78;;;30.08;96.97
37170;BME280;23062;13.952;100.608;2022-08-27T04:13:57;1007.70;;;30.21;95.23
37170;BME280;23062;13.952;100.608;2022-08-27T04:18:47;1007.66;;;30.31;93.69
37170;BME280;23062;13.952;100.608;2022-08-27T04:23:36;1007.63;;;30.14;94.20
37170;BME280;23062;13.952;100.608;2022-08-27T04:28:26;1007.59;;;30.07;94.17
37170;BME280;23062;13.952;100.608;2022-08-27T04:33:15;1007.50;;;30.12;93.70
37170;BME280;23062;13.952;100.608;2022-08-27T04:38:04;1007.45;;;30.08;93.99
37170;BME280;23062;13.952;100.608;2022-08-27T04:42:54;1007.33;;;30.16;92.38
37170;BME280;23062;13.952;100.608;2022-08-27T04:47:43;1007.25;;;30.15;92.23
37170;BME280;23062;13.952;100.608;2022-08-27T04:52:32;1007.15;;;30.32;91.20
37170;BME280;23062;13.952;100.608;2022-08-27T04:57:22;1007.19;;;30.24;91.51
37170;BME280;23062;13.952;100.608;2022-08-27T05:02:12;1007.03;;;30.26;91.26
37170;BME280;23062;13.952;100.608;2022-08-27T05:07:02;1006.96;;;30.13;91.50
37170;BME280;23062;13.952;100.608;2022-08-27T05:11:53;1006.92;;;30.05;90.26
37170;BME280;23062;13.952;100.608;2022-08-27T05:16:43;1006.83;;;30.06;89.25
37170;BME280;23062;13.952;100.608;2022-08-27T05:21:35;1006.76;;;30.06;89.07
37170;BME280;23062;13.952;100.608;2022-08-27T05:26:25;1006.71;;;30.18;89.06
37170;BME280;23062;13.952;100.608;2022-08-27T05:31:17;1006.58;;;30.15;88.81
37170;BME280;23062;13.952;100.608;2022-08-27T05:36:12;1006.58;;;30.10;88.37
37170;BME280;23062;13.952;100.608;2022-08-27T05:41:05;1006.48;;;30.09;87.78
37170;BME280;23062;13.952;100.608;2022-08-27T05:45:56;1006.36;;;30.16;84.83
37170;BME280;23062;13.952;100.608;2022-08-27T05:50:46;1006.33;;;30.15;84.06
37170;BME280;23062;13.952;100.608;2022-08-27T05:55:40;1006.26;;;30.36;82.07
37170;BME280;23062;13.952;100.608;2022-08-27T06:00:29;1006.12;;;30.37;80.82
37170;BME280;23062;13.952;100.608;2022-08-27T06:05:43;1006.05;;;30.45;80.40
37170;BME280;23062;13.952;100.608;2022-08-27T06:10:37;1006.02;;;30.43;80.29
37170;BME280;23062;13.952;100.608;2022-08-27T06:15:24;1005.95;;;30.48;80.00
37170;BME280;23062;13.952;100.608;2022-08-27T06:20:14;1005.90;;;30.38;80.54
37170;BME280;23062;13.952;100.608;2022-08-27T06:25:04;1005.83;;;30.51;79.77
37170;BME280;23062;13.952;100.608;2022-08-27T06:29:53;1005.79;;;30.52;80.19
37170;BME280;23062;13.952;100.608;2022-08-27T06:34:44;1005.75;;;30.46;80.67
37170;BME280;23062;13.952;100.608;2022-08-27T06:39:35;1005.61;;;30.51;79.55
37170;BME280;23062;13.952;100.608;2022-08-27T06:44:26;1005.63;;;30.45;79.45
37170;BME280;23062;13.952;100.608;2022-08-27T06:49:16;1005.53;;;30.58;84.60
37170;BME280;23062;13.952;100.608;2022-08-27T06:54:08;1005.36;;;30.51;87.05
37170;BME280;23062;13.952;100.608;2022-08-27T06:59:01;1005.31;;;30.56;89.09
37170;BME280;23062;13.952;100.608;2022-08-27T07:03:54;1005.17;;;30.60;91.57
37170;BME280;23062;13.952;100.608;2022-08-27T07:08:44;1005.08;;;30.61;92.39
37170;BME280;23062;13.952;100.608;2022-08-27T07:13:34;1005.00;;;30.57;91.90
37170;BME280;23062;13.952;100.608;2022-08-27T07:18:24;1004.93;;;30.73;89.95
37170;BME280;23062;13.952;100.608;2022-08-27T07:23:13;1004.87;;;30.70;86.84
37170;BME280;23062;13.952;100.608;2022-08-27T07:28:03;1005.01;;;30.71;84.34
37170;BME280;23062;13.952;100.608;2022-08-27T07:32:52;1005.00;;;30.71;83.54
37170;BME280;23062;13.952;100.608;2022-08-27T07:37:42;1004.94;;;30.68;83.28
37170;BME280;23062;13.952;100.608;2022-08-27T07:42:31;1004.81;;;30.71;82.96
37170;BME280;23062;13.952;100.608;2022-08-27T07:47:46;1004.86;;;30.68;82.50
37170;BME280;23062;13.952;100.608;2022-08-27T07:52:36;1004.83;;;30.62;82.16
37170;BME280;23062;13.952;100.608;2022-08-27T07:57:25;1004.81;;;30.67;80.53
37170;BME280;23062;13.952;100.608;2022-08-27T08:02:14;1004.79;;;30.71;78.13
37170;BME280;23062;13.952;100.608;2022-08-27T08:07:04;1004.77;;;30.65;77.52
37170;BME280;23062;13.952;100.608;2022-08-27T08:11:53;1004.76;;;30.63;78.30
37170;BME280;23062;13.952;100.608;2022-08-27T08:16:42;1004.83;;;30.62;79.28
37170;BME280;23062;13.952;100.608;2022-08-27T08:21:32;1004.66;;;30.65;79.29
37170;BME280;23062;13.952;100.608;2022-08-27T08:26:21;1004.60;;;30.60;80.80
37170;BME280;23062;13.952;100.608;2022-08-27T08:31:12;1004.54;;;30.67;85.91
37170;BME280;23062;13.952;100.608;2022-08-27T08:36:13;1004.55;;;30.67;88.45
37170;BME280;23062;13.952;100.608;2022-08-27T08:41:03;1004.52;;;30.66;90.57
37170;BME280;23062;13.952;100.608;2022-08-27T08:45:54;1004.50;;;30.65;92.37
37170;BME280;23062;13.952;100.608;2022-08-27T08:51:00;1004.56;;;30.67;92.90
37170;BME280;23062;13.952;100.608;2022-08-27T08:55:54;1004.54;;;30.67;92.13
37170;BME280;23062;13.952;100.608;2022-08-27T09:00:44;1004.54;;;30.64;93.03
37170;BME280;23062;13.952;100.608;2022-08-27T09:05:35;1004.54;;;30.67;87.83
37170;BME280;23062;13.952;100.608;2022-08-27T09:10:43;1004.49;;;30.64;90.33
37170;BME280;23062;13.952;100.608;2022-08-27T09:15:33;1004.41;;;30.62;92.34
37170;BME280;23062;13.952;100.608;2022-08-27T09:20:24;1004.49;;;30.60;93.10
37170;BME280;23062;13.952;100.608;2022-08-27T09:30:11;1004.30;;;30.58;90.42
37170;BME280;23062;13.952;100.608;2022-08-27T09:35:03;1004.26;;;30.57;86.88
37170;BME280;23062;13.952;100.608;2022-08-27T09:44:53;1004.16;;;30.55;84.29
37170;BME280;23062;13.952;100.608;2022-08-27T09:49:42;1004.18;;;30.55;83.70
37170;BME280;23062;13.952;100.608;2022-08-27T09:54:44;1004.14;;;30.56;82.15
37170;BME280;23062;13.952;100.608;2022-08-27T09:59:36;1004.28;;;30.54;82.40
37170;BME280;23062;13.952;100.608;2022-08-27T10:04:50;1004.22;;;30.54;82.82
37170;BME280;23062;13.952;100.608;2022-08-27T10:09:37;1004.26;;;30.51;84.17
37170;BME280;23062;13.952;100.608;2022-08-27T10:14:35;1004.27;;;30.46;85.51
37170;BME280;23062;13.952;100.608;2022-08-27T10:19:34;1004.36;;;30.45;85.34
37170;BME280;23062;13.952;100.608;2022-08-27T10:44:49;1004.30;;;30.42;87.25
37170;BME280;23062;13.952;100.608;2022-08-27T10:54:46;1004.33;;;30.41;86.62
37170;BME280;23062;13.952;100.608;2022-08-27T10:59:45;1004.24;;;30.40;87.87
37170;BME280;23062;13.952;100.608;2022-08-27T11:04:41;1004.21;;;30.42;88.65
37170;BME280;23062;13.952;100.608;2022-08-27T11:09:33;1004.23;;;30.39;89.18
37170;BME280;23062;13.952;100.608;2022-08-27T11:14:37;1004.29;;;30.38;89.27
37170;BME280;23062;13.952;100.608;2022-08-27T11:19:30;1004.39;;;30.34;89.90
37170;BME280;23062;13.952;100.608;2022-08-27T11:24:30;1004.54;;;30.40;89.98
37170;BME280;23062;13.952;100.608;2022-08-27T11:29:27;1004.64;;;30.34;90.82
37170;BME280;23062;13.952;100.608;2022-08-27T11:34:32;1004.70;;;30.39;90.30
37170;BME280;23062;13.952;100.608;2022-08-27T11:39:39;1004.75;;;30.35;90.06
37170;BME280;23062;13.952;100.608;2022-08-27T11:44:28;1004.84;;;30.38;89.90
37170;BME280;23062;13.952;100.608;2022-08-27T11:49:36;1004.79;;;30.35;88.91
37170;BME280;23062;13.952;100.608;2022-08-27T11:54:30;1005.00;;;30.32;88.40
37170;BME280;23062;13.952;100.608;2022-08-27T12:09:23;1005.10;;;30.27;88.30
37170;BME280;23062;13.952;100.608;2022-08-27T12:14:26;1005.10;;;30.25;88.67
37170;BME280;23062;13.952;100.608;2022-08-27T12:19:32;1005.23;;;30.23;88.59
37170;BME280;23062;13.952;100.608;2022-08-27T12:24:46;1005.22;;;30.21;88.76
37170;BME280;23062;13.952;100.608;2022-08-27T12:29:49;1005.24;;;30.23;88.92
37170;BME280;23062;13.952;100.608;2022-08-27T12:34:51;1005.32;;;30.21;89.33
37170;BME280;23062;13.952;100.608;2022-08-27T12:39:36;1005.40;;;30.24;89.60
37170;BME280;23062;13.952;100.608;2022-08-27T12:44:32;1005.51;;;30.26;89.82
37170;BME280;23062;13.952;100.608;2022-08-27T12:49:26;1005.54;;;30.32;89.69
37170;BME280;23062;13.952;100.608;2022-08-27T12:54:27;1005.65;;;30.47;89.57
37170;BME280;23062;13.952;100.608;2022-08-27T12:59:31;1005.69;;;30.51;89.91
37170;BME280;23062;13.952;100.608;2022-08-27T13:04:22;1005.74;;;30.51;90.76
37170;BME280;23062;13.952;100.608;2022-08-27T13:09:11;1005.91;;;30.54;90.59
37170;BME280;23062;13.952;100.608;2022-08-27T13:14:10;1006.10;;;30.54;91.08
37170;BME280;23062;13.952;100.608;2022-08-27T13:19:00;1006.29;;;30.58;90.97
37170;BME280;23062;13.952;100.608;2022-08-27T13:24:06;1006.41;;;30.51;91.95
37170;BME280;23062;13.952;100.608;2022-08-27T13:28:57;1006.52;;;30.51;91.86
37170;BME280;23062;13.952;100.608;2022-08-27T13:33:47;1006.67;;;30.48;92.30
37170;BME280;23062;13.952;100.608;2022-08-27T13:38:43;1006.78;;;30.44;92.28
37170;BME280;23062;13.952;100.608;2022-08-27T13:43:36;1006.89;;;30.46;92.96
37170;BME280;23062;13.952;100.608;2022-08-27T13:48:26;1006.98;;;30.44;93.57
37170;BME280;23062;13.952;100.608;2022-08-27T13:53:23;1007.07;;;30.39;93.38
37170;BME280;23062;13.952;100.608;2022-08-27T13:58:34;1007.14;;;30.37;93.55
37170;BME280;23062;13.952;100.608;2022-08-27T14:03:29;1007.25;;;30.37;94.27
37170;BME280;23062;13.952;100.608;2022-08-27T14:08:19;1007.40;;;30.38;93.67
37170;BME280;23062;13.952;100.608;2022-08-27T14:13:21;1007.52;;;30.35;94.43
37170;BME280;23062;13.952;100.608;2022-08-27T14:18:29;1007.58;;;30.37;94.37
37170;BME280;23062;13.952;100.608;2022-08-27T14:23:20;1007.63;;;30.33;94.59
37170;BME280;23062;13.952;100.608;2022-08-27T14:28:10;1007.76;;;30.36;95.12
37170;BME280;23062;13.952;100.608;2022-08-27T14:33:01;1007.93;;;30.30;95.05
37170;BME280;23062;13.952;100.608;2022-08-27T14:37:50;1007.97;;;30.34;95.70
37170;BME280;23062;13.952;100.608;2022-08-27T14:42:39;1008.13;;;30.34;95.47
37170;BME280;23062;13.952;100.608;2022-08-27T14:47:30;1008.19;;;30.32;95.86
37170;BME280;23062;13.952;100.608;2022-08-27T14:52:19;1008.31;;;30.30;95.50
37170;BME280;23062;13.952;100.608;2022-08-27T14:57:09;1008.35;;;30.31;95.82
37170;BME280;23062;13.952;100.608;2022-08-27T15:01:59;1008.48;;;30.30;95.99
37170;BME280;23062;13.952;100.608;2022-08-27T15:06:49;1008.53;;;30.30;96.31
37170;BME280;23062;13.952;100.608;2022-08-27T15:11:39;1008.63;;;30.31;96.21
37170;BME280;23062;13.952;100.608;2022-08-27T15:16:34;1008.60;;;30.26;96.66
37170;BME280;23062;13.952;100.608;2022-08-27T15:21:24;1008.57;;;30.25;96.60
37170;BME280;23062;13.952;100.608;2022-08-27T15:26:15;1008.55;;;30.26;97.10
37170;BME280;23062;13.952;100.608;2022-08-27T15:31:05;1008.45;;;30.25;97.08
37170;BME280;23062;13.952;100.608;2022-08-27T15:35:55;1008.39;;;30.24;97.07
37170;BME280;23062;13.952;100.608;2022-08-27T15:40:45;1008.36;;;30.25;96.94
37170;BME280;23062;13.952;100.608;2022-08-27T15:45:34;1008.21;;;30.23;97.25
37170;BME280;23062;13.952;100.608;2022-08-27T15:50:25;1008.22;;;30.24;96.97
37170;BME280;23062;13.952;100.608;2022-08-27T15:55:24;1008.22;;;30.23;97.44
37170;BME280;23062;13.952;100.608;2022-08-27T16:00:11;1008.12;;;30.25;97.03
37170;BME280;23062;13.952;100.608;2022-08-27T16:05:00;1008.13;;;30.23;97.34
37170;BME280;23062;13.952;100.608;2022-08-27T16:09:50;1008.08;;;30.22;97.21
37170;BME280;23062;13.952;100.608;2022-08-27T16:14:40;1008.15;;;30.17;97.71
37170;BME280;23062;13.952;100.608;2022-08-27T16:19:29;1008.25;;;30.19;97.61
37170;BME280;23062;13.952;100.608;2022-08-27T16:24:19;1008.28;;;30.21;95.72
37170;BME280;23062;13.952;100.608;2022-08-27T16:29:09;1008.29;;;30.17;96.70
37170;BME280;23062;13.952;100.608;2022-08-27T16:33:58;1008.29;;;30.18;96.91
37170;BME280;23062;13.952;100.608;2022-08-27T16:38:48;1008.16;;;30.17;96.98
37170;BME280;23062;13.952;100.608;2022-08-27T16:43:38;1008.12;;;30.19;97.12
37170;BME280;23062;13.952;100.608;2022-08-27T16:48:28;1008.26;;;30.13;97.42
37170;BME280;23062;13.952;100.608;2022-08-27T16:53:43;1008.26;;;30.21;97.15
37170;BME280;23062;13.952;100.608;2022-08-27T16:58:35;1008.30;;;30.17;97.51
37170;BME280;23062;13.952;100.608;2022-08-27T17:03:25;1008.25;;;30.16;97.31
37170;BME280;23062;13.952;100.608;2022-08-27T17:08:17;1008.23;;;30.17;97.47
37170;BME280;23062;13.952;100.608;2022-08-27T17:13:07;1008.21;;;30.16;97.59
37170;BME280;23062;13.952;100.608;2022-08-27T17:17:57;1008.12;;;30.17;97.71
37170;BME280;23062;13.952;100.608;2022-08-27T17:22:47;1008.10;;;30.13;98.06
37170;BME280;23062;13.952;100.608;2022-08-27T17:27:37;1008.06;;;30.11;98.27
37170;BME280;23062;13.952;100.608;2022-08-27T17:32:26;1007.98;;;30.08;98.54
37170;BME280;23062;13.952;100.608;2022-08-27T17:37:17;1007.87;;;30.11;98.49
37170;BME280;23062;13.952;100.608;2022-08-27T17:42:07;1007.83;;;30.13;98.31
37170;BME280;23062;13.952;100.608;2022-08-27T17:46:58;1007.77;;;30.09;99.03
37170;BME280;23062;13.952;100.608;2022-08-27T17:51:49;1007.74;;;30.10;99.14
37170;BME280;23062;13.952;100.608;2022-08-27T17:56:39;1007.66;;;30.11;99.14
37170;BME280;23062;13.952;100.608;2022-08-27T18:01:31;1007.60;;;30.08;99.77
37170;BME280;23062;13.952;100.608;2022-08-27T18:06:21;1007.57;;;30.06;100.00
37170;BME280;23062;13.952;100.608;2022-08-27T18:11:12;1007.59;;;30.09;100.00
37170;BME280;23062;13.952;100.608;2022-08-27T18:16:02;1007.48;;;30.11;100.00
37170;BME280;23062;13.952;100.608;2022-08-27T18:20:51;1007.41;;;30.07;100.00
37170;BME280;23062;13.952;100.608;2022-08-27T18:25:43;1007.45;;;30.08;100.00
37170;BME280;23062;13.952;100.608;2022-08-27T18:30:32;1007.37;;;30.12;100.00
37170;BME280;23062;13.952;100.608;2022-08-27T18:35:25;1007.38;;;30.03;100.00
37170;BME280;23062;13.952;100.608;2022-08-27T18:40:15;1007.29;;;30.01;100.00
37170;BME280;23062;13.952;100.608;2022-08-27T18:45:17;1007.19;;;30.05;100.00
37170;BME280;23062;13.952;100.608;2022-08-27T18:50:03;1007.10;;;30.05;100.00
37170;BME280;23062;13.952;100.608;2022-08-27T18:54:53;1007.04;;;30.01;100.00
37170;BME280;23062;13.952;100.608;2022-08-27T18:59:42;1006.98;;;30.00;100.00
37170;BME280;23062;13.952;100.608;2022-08-27T19:04:33;1006.92;;;30.03;100.00
37170;BME280;23062;13.952;100.608;2022-08-27T19:09:24;1006.82;;;30.02;100.00
37170;BME280;23062;13.952;100.608;2022-08-27T19:14:13;1006.84;;;30.00;100.00
37170;BME280;23062;13.952;100.608;2022-08-27T19:19:03;1006.65;;;30.03;100.00
37170;BME280;23062;13.952;100.608;2022-08-27T19:23:52;1006.58;;;30.02;100.00
37170;BME280;23062;13.952;100.608;2022-08-27T19:28:43;1006.52;;;30.06;100.00
37170;BME280;23062;13.952;100.608;2022-08-27T19:33:32;1006.47;;;29.98;100.00
37170;BME280;23062;13.952;100.608;2022-08-27T19:38:22;1006.41;;;29.95;100.00
37170;BME280;23062;13.952;100.608;2022-08-27T19:43:12;1006.41;;;29.95;100.00
37170;BME280;23062;13.952;100.608;2022-08-27T19:48:02;1006.45;;;29.98;100.00
37170;BME280;23062;13.952;100.608;2022-08-27T19:52:52;1006.50;;;29.96;100.00
37170;BME280;23062;13.952;100.608;2022-08-27T19:57:43;1006.44;;;29.96;100.00
37170;BME280;23062;13.952;100.608;2022-08-27T20:02:33;1006.41;;;29.99;100.00
37170;BME280;23062;13.952;100.608;2022-08-27T20:07:23;1006.46;;;29.99;100.00
37170;BME280;23062;13.952;100.608;2022-08-27T20:12:12;1006.48;;;29.97;100.00
37170;BME280;23062;13.952;100.608;2022-08-27T20:17:02;1006.46;;;29.94;100.00
37170;BME280;23062;13.952;100.608;2022-08-27T20:21:53;1006.49;;;29.93;100.00
37170;BME280;23062;13.952;100.608;2022-08-27T20:26:42;1006.48;;;29.90;100.00
37170;BME280;23062;13.952;100.608;2022-08-27T20:31:32;1006.50;;;29.93;100.00
37170;BME280;23062;13.952;100.608;2022-08-27T20:36:26;1006.50;;;29.91;100.00
37170;BME280;23062;13.952;100.608;2022-08-27T20:41:17;1006.52;;;29.90;100.00
37170;BME280;23062;13.952;100.608;2022-08-27T20:46:06;1006.55;;;29.90;100.00
37170;BME280;23062;13.952;100.608;2022-08-27T20:50:57;1006.48;;;29.85;100.00
37170;BME280;23062;13.952;100.608;2022-08-27T20:55:47;1006.33;;;29.89;100.00
37170;BME280;23062;13.952;100.608;2022-08-27T21:00:38;1006.22;;;29.87;100.00
37170;BME280;23062;13.952;100.608;2022-08-27T21:05:30;1006.11;;;29.84;100.00
37170;BME280;23062;13.952;100.608;2022-08-27T21:10:21;1006.21;;;29.88;100.00
37170;BME280;23062;13.952;100.608;2022-08-27T21:15:12;1006.35;;;29.91;100.00
37170;BME280;23062;13.952;100.608;2022-08-27T21:20:11;1006.42;;;29.87;100.00
37170;BME280;23062;13.952;100.608;2022-08-27T21:25:00;1006.45;;;29.85;100.00
37170;BME280;23062;13.952;100.608;2022-08-27T21:29:50;1006.55;;;29.88;100.00
37170;BME280;23062;13.952;100.608;2022-08-27T21:34:39;1006.75;;;29.90;100.00
37170;BME280;23062;13.952;100.608;2022-08-27T21:39:29;1006.80;;;29.88;100.00
37170;BME280;23062;13.952;100.608;2022-08-27T21:44:20;1006.73;;;29.90;100.00
37170;BME280;23062;13.952;100.608;2022-08-27T21:49:10;1006.68;;;29.88;100.00
37170;BME280;23062;13.952;100.608;2022-08-27T21:53:59;1006.70;;;29.89;100.00
37170;BME280;23062;13.952;100.608;2022-08-27T21:58:48;1006.83;;;29.82;100.00
37170;BME280;23062;13.952;100.608;2022-08-27T22:03:38;1006.88;;;29.81;100.00
37170;BME280;23062;13.952;100.608;2022-08-27T22:08:29;1006.85;;;29.85;100.00
37170;BME280;23062;13.952;100.608;2022-08-27T22:13:19;1006.80;;;29.77;100.00
37170;BME280;23062;13.952;100.608;2022-08-27T22:18:09;1006.73;;;29.71;100.00
37170;BME280;23062;13.952;100.608;2022-08-27T22:22:59;1006.66;;;29.63;100.00
37170;BME280;23062;13.952;100.608;2022-08-27T22:27:49;1006.74;;;29.68;100.00
37170;BME280;23062;13.952;100.608;2022-08-27T22:32:39;1006.72;;;29.62;100.00
37170;BME280;23062;13.952;100.608;2022-08-27T22:37:28;1006.76;;;29.58;100.00
37170;BME280;23062;13.952;100.608;2022-08-27T22:42:19;1006.82;;;29.55;100.00
37170;BME280;23062;13.952;100.608;2022-08-27T22:47:08;1006.87;;;29.55;100.00
37170;BME280;23062;13.952;100.608;2022-08-27T22:51:58;1006.79;;;29.50;100.00
37170;BME280;23062;13.952;100.608;2022-08-27T22:56:47;1006.89;;;29.46;100.00
37170;BME280;23062;13.952;100.608;2022-08-27T23:01:38;1006.97;;;29.30;100.00
37170;BME280;23062;13.952;100.608;2022-08-27T23:06:27;1007.09;;;29.18;100.00
37170;BME280;23062;13.952;100.608;2022-08-27T23:11:17;1007.08;;;29.38;100.00
37170;BME280;23062;13.952;100.608;2022-08-27T23:16:09;1007.00;;;29.42;100.00
37170;BME280;23062;13.952;100.608;2022-08-27T23:21:04;1007.04;;;29.45;100.00
37170;BME280;23062;13.952;100.608;2022-08-27T23:25:53;1007.15;;;29.36;99.71
37170;BME280;23062;13.952;100.608;2022-08-27T23:31:00;1007.21;;;29.25;99.67
37170;BME280;23062;13.952;100.608;2022-08-27T23:35:49;1007.24;;;29.13;100.00
37170;BME280;23062;13.952;100.608;2022-08-27T23:40:39;1007.27;;;29.07;100.00
37170;BME280;23062;13.952;100.608;2022-08-27T23:45:28;1007.33;;;29.06;100.00
37170;BME280;23062;13.952;100.608;2022-08-27T23:50:19;1007.32;;;29.14;100.00
37170;BME280;23062;13.952;100.608;2022-08-27T23:55:10;1007.31;;;29.24;100.00
37170;BME280;23062;13.952;100.608;2022-08-27T23:59:59;1007.34;;;29.18;100.00
